createdAt,value
2022-11-15T00:01:26.192Z,82.51
2022-11-15T00:03:54.725Z,82.50
2022-11-15T00:06:23.005Z,83.36
2022-11-15T00:08:51.260Z,83.34
2022-11-15T00:11:19.535Z,83.83
2022-11-15T00:13:49.571Z,83.12
2022-11-15T00:16:17.895Z,84.40
2022-11-15T00:18:50.404Z,84.06
2022-11-15T00:21:19.877Z,84.18
2022-11-15T00:23:48.173Z,83.59
2022-11-15T00:26:17.675Z,84.63
2022-11-15T00:28:46.032Z,84.96
2022-11-15T00:31:17.511Z,84.79
2022-11-15T00:33:46.936Z,85.00
2022-11-15T00:36:15.571Z,84.75
2022-11-15T00:38:43.993Z,84.11
2022-11-15T00:41:12.272Z,84.68
2022-11-15T00:43:41.090Z,84.94
2022-11-15T00:46:10.688Z,84.79
2022-11-15T00:48:40.384Z,84.57
2022-11-15T00:51:08.635Z,84.53
2022-11-15T00:53:37.125Z,85.38
2022-11-15T00:56:06.140Z,85.60
2022-11-15T00:58:34.644Z,85.71
2022-11-15T01:01:13.550Z,85.53
2022-11-15T01:03:43.815Z,85.85
2022-11-15T01:06:13.633Z,85.90
2022-11-15T01:08:42.215Z,86.00
2022-11-15T01:11:13.784Z,86.72
2022-11-15T01:13:42.518Z,85.75
2022-11-15T01:16:14.253Z,85.98
2022-11-15T01:18:43.922Z,85.58
2022-11-15T01:21:14.869Z,86.14
2022-11-15T01:23:43.367Z,85.69
2022-11-15T01:26:15.880Z,85.03
2022-11-15T01:28:45.082Z,85.26
2022-11-15T01:31:18.668Z,85.21
2022-11-15T01:33:49.607Z,84.54
2022-11-15T01:36:22.658Z,84.61
2022-11-15T01:38:56.307Z,84.70
2022-11-15T01:41:27.568Z,85.63
2022-11-15T01:43:58.438Z,84.49
2022-11-15T01:46:34.596Z,84.41
2022-11-15T01:49:13.495Z,84.82
2022-11-15T01:51:42.165Z,84.52
2022-11-15T01:54:15.752Z,84.42
2022-11-15T01:56:49.987Z,84.20
2022-11-15T01:59:18.559Z,84.33
2022-11-15T02:01:47.233Z,84.28
2022-11-15T02:04:21.474Z,84.87
2022-11-15T02:06:51.119Z,84.31
2022-11-15T02:09:20.096Z,84.76
2022-11-15T02:11:50.659Z,84.68
2022-11-15T02:14:21.552Z,84.30
2022-11-15T02:17:01.293Z,84.59
2022-11-15T02:20:11.838Z,83.98
2022-11-15T02:22:50.161Z,84.33
2022-11-15T02:25:40.706Z,84.49
2022-11-15T02:28:47.101Z,84.11
2022-11-15T02:31:27.594Z,84.12
2022-11-15T02:34:04.325Z,83.73
2022-11-15T02:36:43.781Z,84.32
2022-11-15T02:39:21.290Z,84.07
2022-11-15T02:41:54.893Z,84.17
2022-11-15T02:44:29.120Z,83.83
2022-11-15T02:47:16.498Z,84.03
2022-11-15T02:49:49.481Z,83.94
2022-11-15T02:52:19.032Z,83.94
2022-11-15T02:54:56.292Z,84.07
2022-11-15T02:57:40.400Z,83.99
2022-11-15T03:00:11.658Z,84.17
2022-11-15T03:03:11.638Z,84.27
2022-11-15T03:05:47.116Z,83.63
2022-11-15T03:08:25.659Z,84.12
2022-11-15T03:11:05.298Z,84.11
2022-11-15T03:13:39.959Z,83.58
2022-11-15T03:16:15.768Z,83.72
2022-11-15T03:18:52.362Z,84.26
2022-11-15T03:21:22.024Z,84.20
2022-11-15T03:23:52.787Z,84.35
2022-11-15T03:26:24.071Z,83.94
2022-11-15T03:28:55.277Z,84.05
2022-11-15T03:31:48.603Z,83.94
2022-11-15T03:34:28.648Z,83.88
2022-11-15T03:36:57.169Z,84.24
2022-11-15T03:39:27.234Z,84.33
2022-11-15T03:42:07.172Z,84.71
2022-11-15T03:44:44.121Z,84.36
2022-11-15T03:47:18.781Z,84.53
2022-11-15T03:49:55.062Z,84.76
2022-11-15T03:52:24.818Z,85.01
2022-11-15T03:54:56.177Z,85.13
2022-11-15T03:57:24.839Z,85.17
2022-11-15T03:59:53.127Z,84.89
2022-11-15T04:02:21.968Z,85.11
2022-11-15T04:04:51.597Z,84.87
2022-11-15T04:07:20.180Z,85.04
2022-11-15T04:10:07.341Z,85.08
2022-11-15T04:12:38.211Z,85.60
2022-11-15T04:15:10.439Z,85.17
2022-11-15T04:17:41.963Z,85.56
2022-11-15T04:20:33.583Z,85.46
2022-11-15T04:23:21.157Z,85.90
2022-11-15T04:25:53.251Z,86.14
2022-11-15T04:28:21.811Z,86.00
2022-11-15T04:30:50.231Z,85.72
2022-11-15T04:33:18.444Z,86.30
2022-11-15T04:36:08.152Z,85.70
2022-11-15T04:38:36.402Z,86.25
2022-11-15T04:41:05.535Z,86.23
2022-11-15T04:43:34.138Z,86.32
2022-11-15T04:46:02.516Z,86.27
2022-11-15T04:48:30.733Z,86.20
2022-11-15T04:51:00.358Z,86.47
2022-11-15T04:53:28.615Z,86.59
2022-11-15T04:55:58.676Z,86.86
2022-11-15T04:58:26.956Z,87.02
2022-11-15T05:00:55.274Z,86.96
2022-11-15T05:03:41.390Z,87.01
2022-11-15T05:06:10.989Z,87.52
2022-11-15T05:08:39.177Z,87.24
2022-11-15T05:11:07.802Z,87.48
2022-11-15T05:13:36.047Z,87.65
2022-11-15T05:16:04.357Z,87.36
2022-11-15T05:18:32.697Z,87.70
2022-11-15T05:21:06.693Z,87.76
2022-11-15T05:23:36.272Z,87.88
2022-11-15T05:26:09.351Z,88.23
2022-11-15T05:28:39.124Z,87.99
2022-11-15T05:31:10.278Z,87.99
2022-11-15T05:33:40.292Z,87.95
2022-11-15T05:36:14.595Z,88.41
2022-11-15T05:38:44.499Z,88.35
2022-11-15T05:41:13.581Z,88.67
2022-11-15T05:43:43.199Z,88.81
2022-11-15T05:46:11.891Z,88.81
2022-11-15T05:48:43.856Z,88.71
2022-11-15T05:51:12.421Z,88.98
2022-11-15T05:53:40.756Z,89.09
2022-11-15T05:56:12.182Z,89.10
2022-11-15T05:58:40.803Z,89.31
2022-11-15T06:01:11.104Z,89.36
2022-11-15T06:03:39.407Z,89.42
2022-11-15T06:06:12.247Z,89.43
2022-11-15T06:08:43.406Z,89.60
2022-11-15T06:11:13.028Z,89.67
2022-11-15T06:13:41.260Z,89.78
2022-11-15T06:16:09.842Z,90.02
2022-11-15T06:18:39.133Z,89.78
2022-11-15T06:21:08.121Z,90.11
2022-11-15T06:23:37.488Z,90.14
2022-11-15T06:26:06.132Z,90.12
2022-11-15T06:28:36.346Z,90.56
2022-11-15T06:31:06.149Z,90.30
2022-11-15T06:33:34.731Z,90.48
2022-11-15T06:36:04.224Z,90.39
2022-11-15T06:38:32.623Z,90.67
2022-11-15T06:41:04.882Z,90.25
2022-11-15T06:43:33.824Z,90.29
2022-11-15T06:46:04.999Z,90.63
2022-11-15T06:48:34.587Z,90.61
2022-11-15T06:51:05.088Z,90.85
2022-11-15T06:53:34.525Z,90.51
2022-11-15T06:56:04.214Z,90.79
2022-11-15T06:58:32.660Z,90.78
2022-11-15T07:01:04.340Z,90.71
2022-11-15T07:03:33.318Z,90.55
2022-11-15T07:06:07.143Z,90.67
2022-11-15T07:08:36.987Z,90.82
2022-11-15T07:11:08.441Z,91.16
2022-11-15T07:13:38.352Z,91.24
2022-11-15T07:16:11.096Z,91.09
2022-11-15T07:18:40.997Z,91.14
2022-11-15T07:21:11.948Z,91.15
2022-11-15T07:23:41.320Z,91.30
2022-11-15T07:26:10.741Z,91.12
2022-11-15T07:28:38.950Z,91.40
2022-11-15T07:31:10.570Z,90.95
2022-11-15T07:33:39.088Z,91.05
2022-11-15T07:36:16.365Z,91.11
2022-11-15T07:38:44.710Z,91.09
2022-11-15T07:41:13.032Z,90.81
2022-11-15T07:43:41.246Z,91.22
2022-11-15T07:46:12.385Z,91.39
2022-11-15T07:48:45.610Z,91.28
2022-11-15T07:51:15.487Z,91.37
2022-11-15T07:53:44.256Z,91.32
2022-11-15T07:56:13.229Z,90.76
2022-11-15T07:58:41.888Z,91.11
2022-11-15T08:01:13.413Z,90.28
2022-11-15T08:03:41.752Z,90.95
2022-11-15T08:06:10.111Z,90.88
2022-11-15T08:08:38.311Z,90.85
2022-11-15T08:11:07.561Z,90.63
2022-11-15T08:13:35.991Z,91.06
2022-11-15T08:16:06.602Z,90.78
2022-11-15T08:18:36.640Z,90.33
2022-11-15T08:21:05.861Z,90.37
2022-11-15T08:23:34.269Z,90.62
2022-11-15T08:26:04.041Z,90.76
2022-11-15T08:28:32.873Z,90.67
2022-11-15T08:31:01.318Z,90.23
2022-11-15T08:33:30.330Z,90.79
2022-11-15T08:36:01.491Z,90.35
2022-11-15T08:38:31.778Z,90.14
2022-11-15T08:41:04.830Z,90.54
2022-11-15T08:43:33.435Z,90.32
2022-11-15T08:46:01.949Z,89.88
2022-11-15T08:48:30.357Z,90.24
2022-11-15T08:51:02.429Z,89.77
2022-11-15T08:53:30.630Z,90.11
2022-11-15T08:55:58.882Z,89.67
2022-11-15T08:58:27.213Z,89.73
2022-11-15T09:00:56.056Z,89.38
2022-11-15T09:03:24.341Z,89.35
2022-11-15T09:05:59.337Z,89.53
2022-11-15T09:11:21.814Z,89.08
2022-11-15T09:13:50.164Z,88.79
2022-11-15T09:16:18.383Z,89.39
2022-11-15T09:18:46.765Z,88.70
2022-11-15T09:21:16.414Z,88.62
2022-11-15T09:23:44.691Z,88.62
2022-11-15T09:26:12.969Z,88.62
2022-11-15T09:28:42.844Z,88.99
2022-11-15T09:31:11.785Z,88.53
2022-11-15T09:33:40.052Z,88.27
2022-11-15T09:36:10.842Z,88.72
2022-11-15T09:38:40.757Z,88.35
2022-11-15T09:42:10.422Z,88.19
2022-11-15T09:45:12.528Z,88.47
2022-11-15T09:48:27.392Z,88.36
2022-11-15T09:51:00.811Z,87.89
2022-11-15T09:54:18.674Z,87.95
2022-11-15T09:56:31.254Z,88.19
2022-11-15T09:59:15.383Z,87.75
2022-11-15T10:01:56.345Z,87.65
2022-11-15T10:04:26.058Z,88.01
2022-11-15T10:07:02.288Z,87.88
2022-11-15T10:09:40.134Z,87.83
2022-11-15T10:12:11.343Z,87.82
2022-11-15T10:14:39.628Z,87.76
2022-11-15T10:17:36.827Z,87.44
2022-11-15T10:20:17.195Z,87.78
2022-11-15T10:22:49.450Z,87.25
2022-11-15T10:25:25.138Z,87.65
2022-11-15T10:27:59.466Z,87.48
2022-11-15T10:30:36.145Z,87.97
2022-11-15T10:33:34.687Z,87.89
2022-11-15T10:36:26.680Z,88.12
2022-11-15T10:39:01.064Z,87.52
2022-11-15T10:41:39.100Z,87.52
2022-11-15T10:44:27.991Z,87.72
2022-11-15T10:47:37.705Z,87.82
2022-11-15T10:50:27.661Z,87.61
2022-11-15T10:52:56.448Z,87.84
2022-11-15T10:55:29.311Z,88.04
2022-11-15T10:58:06.238Z,88.16
2022-11-15T11:00:40.914Z,88.48
2022-11-15T11:03:30.551Z,88.03
2022-11-15T11:06:12.336Z,88.90
2022-11-15T11:08:41.153Z,87.94
2022-11-15T11:11:10.113Z,88.23
2022-11-15T11:13:40.875Z,88.88
2022-11-15T11:16:44.325Z,88.46
2022-11-15T11:19:50.576Z,88.32
2022-11-15T11:22:28.508Z,88.82
2022-11-15T11:25:10.785Z,88.55
2022-11-15T11:27:52.729Z,89.03
2022-11-15T11:30:45.072Z,88.76
2022-11-15T11:33:19.607Z,88.40
2022-11-15T11:36:08.605Z,88.25
2022-11-15T11:38:55.898Z,88.48
2022-11-15T11:41:44.487Z,88.45
2022-11-15T11:44:29.972Z,88.02
2022-11-15T11:47:02.781Z,88.53
2022-11-15T11:49:42.275Z,88.11
2022-11-15T11:52:17.321Z,88.06
2022-11-15T11:55:00.925Z,88.01
2022-11-15T11:57:42.259Z,87.95
2022-11-15T12:00:21.754Z,87.58
2022-11-15T12:03:06.439Z,87.38
2022-11-15T12:05:41.621Z,87.24
2022-11-15T12:08:28.479Z,86.92
2022-11-15T12:11:05.880Z,86.34
2022-11-15T12:13:37.728Z,86.36
2022-11-15T12:16:14.640Z,85.83
2022-11-15T12:18:48.246Z,85.21
2022-11-15T12:21:28.876Z,84.60
2022-11-15T12:24:05.092Z,83.95
2022-11-15T12:26:38.828Z,83.65
2022-11-15T12:29:15.463Z,83.60
2022-11-15T12:31:48.143Z,83.02
2022-11-15T12:34:37.245Z,82.64
2022-11-15T12:37:49.840Z,82.52
2022-11-15T12:40:32.037Z,81.94
2022-11-15T12:43:43.425Z,81.87
2022-11-15T12:46:23.227Z,81.72
2022-11-15T12:48:56.376Z,81.93
2022-11-15T12:52:08.250Z,81.09
2022-11-15T12:55:26.335Z,80.35
2022-11-15T12:57:54.607Z,79.52
2022-11-15T13:00:47.981Z,79.41
2022-11-15T13:03:29.138Z,79.21
2022-11-15T13:06:09.075Z,79.01
2022-11-15T13:08:51.273Z,79.29
2022-11-15T13:11:53.417Z,79.26
2022-11-15T13:14:46.694Z,79.03
2022-11-15T13:17:38.686Z,79.12
2022-11-15T13:20:29.567Z,78.31
2022-11-15T13:23:10.653Z,78.08
2022-11-15T13:26:17.481Z,77.64
2022-11-15T13:28:49.582Z,77.25
2022-11-15T13:31:31.832Z,77.03
2022-11-15T13:34:07.321Z,77.22
2022-11-15T13:36:46.300Z,77.05
2022-11-15T13:39:28.599Z,77.07
2022-11-15T13:42:01.240Z,76.52
2022-11-15T13:44:32.844Z,76.91
2022-11-15T13:47:07.323Z,76.53
2022-11-15T13:49:36.638Z,76.67
2022-11-15T13:52:09.232Z,76.52
2022-11-15T13:54:43.963Z,76.94
2022-11-15T13:57:18.171Z,76.63
2022-11-15T13:59:52.935Z,77.09
2022-11-15T14:02:27.369Z,76.69
2022-11-15T14:04:58.767Z,77.15
2022-11-15T14:07:29.818Z,76.94
2022-11-15T14:09:58.286Z,77.37
2022-11-15T14:12:32.754Z,77.01
2022-11-15T14:15:04.565Z,77.24
2022-11-15T14:17:45.776Z,77.48
2022-11-15T14:20:29.538Z,77.60
2022-11-15T14:23:00.173Z,77.20
2022-11-15T14:25:29.618Z,77.96
2022-11-15T14:28:31.866Z,78.04
2022-11-15T14:31:02.067Z,77.98
2022-11-15T14:33:33.387Z,78.39
2022-11-15T14:36:07.423Z,78.39
2022-11-15T14:38:36.238Z,78.57
2022-11-15T14:41:04.932Z,78.32
2022-11-15T14:43:34.613Z,78.43
2022-11-15T14:46:03.041Z,78.80
2022-11-15T14:48:31.858Z,79.28
2022-11-15T14:51:00.316Z,78.66
2022-11-15T14:53:28.599Z,79.53
2022-11-15T14:55:56.841Z,78.89
2022-11-15T14:58:25.003Z,78.95
2022-11-15T15:00:54.652Z,79.63
2022-11-15T15:03:23.115Z,79.75
2022-11-15T15:05:51.561Z,79.94
2022-11-15T15:08:19.781Z,80.27
2022-11-15T15:10:49.313Z,79.92
2022-11-15T15:13:21.155Z,80.54
2022-11-15T15:15:51.064Z,80.97
2022-11-15T15:18:21.515Z,80.52
2022-11-15T15:21:00.954Z,80.93
2022-11-15T15:23:31.778Z,81.23
2022-11-15T15:26:00.254Z,81.68
2022-11-15T15:28:34.058Z,82.05
2022-11-15T15:31:03.403Z,81.87
2022-11-15T15:33:33.234Z,82.06
2022-11-15T15:36:01.610Z,82.34
2022-11-15T15:38:30.209Z,82.71
2022-11-15T15:41:00.563Z,82.68
2022-11-15T15:43:28.769Z,82.84
2022-11-15T15:45:57.139Z,83.13
2022-11-15T15:48:26.006Z,83.06
2022-11-15T15:50:55.564Z,83.34
2022-11-15T15:53:23.843Z,83.36
2022-11-15T15:55:51.987Z,83.07
2022-11-15T15:58:20.271Z,82.99
2022-11-15T16:00:48.511Z,83.14
2022-11-15T16:03:17.049Z,82.89
2022-11-15T16:05:45.323Z,83.37
2022-11-15T16:08:21.415Z,83.75
2022-11-15T16:10:50.893Z,83.39
2022-11-15T16:13:19.509Z,83.59
2022-11-15T16:15:52.748Z,83.41
2022-11-15T16:18:21.291Z,83.55
2022-11-15T16:20:53.133Z,83.12
2022-11-15T16:23:24.662Z,83.25
2022-11-15T16:25:56.604Z,83.17
2022-11-15T16:28:27.819Z,83.52
2022-11-15T16:31:04.955Z,83.44
2022-11-15T16:33:34.396Z,83.15
2022-11-15T16:36:03.508Z,83.32
2022-11-15T16:38:33.682Z,82.91
2022-11-15T16:41:02.257Z,83.07
2022-11-15T16:43:30.576Z,82.82
2022-11-15T16:45:59.020Z,82.54
2022-11-15T16:48:29.442Z,82.07
2022-11-15T16:50:59.595Z,82.69
2022-11-15T16:53:29.655Z,82.49
2022-11-15T16:55:59.513Z,82.13
2022-11-15T16:58:27.741Z,81.81
2022-11-15T17:00:58.050Z,81.67
2022-11-15T17:03:26.890Z,81.74
2022-11-15T17:05:59.457Z,81.89
2022-11-15T17:08:28.661Z,81.50
2022-11-15T17:10:58.654Z,81.44
2022-11-15T17:13:26.911Z,81.29
2022-11-15T17:16:06.854Z,81.07
2022-11-15T17:18:35.635Z,80.96
2022-11-15T17:21:08.834Z,81.12
2022-11-15T17:23:37.171Z,80.85
2022-11-15T17:26:28.704Z,80.99
2022-11-15T17:29:00.950Z,81.09
2022-11-15T17:31:30.714Z,80.84
2022-11-15T17:33:59.617Z,80.69
2022-11-15T17:36:28.106Z,80.68
2022-11-15T17:39:00.080Z,80.08
2022-11-15T17:41:31.382Z,80.50
2022-11-15T17:44:03.363Z,80.50
2022-11-15T17:46:32.180Z,80.14
2022-11-15T17:49:01.375Z,79.96
2022-11-15T17:51:29.699Z,80.08
2022-11-15T17:53:58.624Z,80.01
2022-11-15T17:56:31.582Z,79.94
2022-11-15T17:59:02.066Z,79.08
2022-11-15T18:01:32.585Z,79.37
2022-11-15T18:04:03.627Z,79.55
2022-11-15T18:06:34.769Z,79.72
2022-11-15T18:09:05.318Z,79.47
2022-11-15T18:11:38.673Z,79.27
2022-11-15T18:14:12.571Z,79.41
2022-11-15T18:16:41.165Z,79.01
2022-11-15T18:19:13.306Z,78.91
2022-11-15T18:21:57.217Z,79.01
2022-11-15T18:24:26.752Z,78.97
2022-11-15T18:26:57.013Z,79.09
2022-11-15T18:29:25.665Z,79.17
2022-11-15T18:31:56.220Z,79.14
2022-11-15T18:34:26.135Z,79.11
2022-11-15T18:36:55.714Z,78.79
2022-11-15T18:39:24.155Z,78.94
2022-11-15T18:41:52.432Z,78.82
2022-11-15T18:44:22.044Z,78.64
2022-11-15T18:46:50.940Z,78.68
2022-11-15T18:49:20.943Z,78.80
2022-11-15T18:51:50.162Z,78.95
2022-11-15T18:54:19.247Z,78.40
2022-11-15T18:56:48.023Z,78.75
2022-11-15T18:59:16.739Z,78.84
2022-11-15T19:01:48.424Z,79.17
2022-11-15T19:04:19.207Z,79.12
2022-11-15T19:06:50.820Z,79.22
2022-11-15T19:09:20.926Z,79.05
2022-11-15T19:11:51.651Z,79.06
2022-11-15T19:14:24.218Z,79.15
2022-11-15T19:16:55.122Z,79.15
2022-11-15T19:19:25.243Z,79.27
2022-11-15T19:21:54.272Z,78.99
2022-11-15T19:24:22.841Z,79.03
2022-11-15T19:26:51.161Z,78.68
2022-11-15T19:29:19.460Z,78.88
2022-11-15T19:31:48.653Z,78.74
2022-11-15T19:34:19.121Z,78.55
2022-11-15T19:36:47.507Z,78.60
2022-11-15T19:39:18.509Z,78.49
2022-11-15T19:41:47.750Z,78.29
2022-11-15T19:44:16.883Z,78.38
2022-11-15T19:46:45.339Z,78.24
2022-11-15T19:49:13.984Z,78.07
2022-11-15T19:51:45.340Z,77.66
2022-11-15T19:54:13.754Z,77.53
2022-11-15T19:56:42.076Z,77.78
2022-11-15T19:59:13.580Z,77.11
2022-11-15T20:01:48.017Z,77.42
2022-11-15T20:04:16.512Z,77.44
2022-11-15T20:06:46.425Z,76.89
2022-11-15T20:09:18.133Z,76.75
2022-11-15T20:11:46.404Z,77.02
2022-11-15T20:14:16.139Z,76.87
2022-11-15T20:16:44.440Z,76.39
2022-11-15T20:19:16.014Z,76.55
2022-11-15T20:21:46.074Z,76.28
2022-11-15T20:24:14.603Z,76.43
2022-11-15T20:26:43.870Z,76.48
2022-11-15T20:29:12.622Z,76.01
2022-11-15T20:31:41.077Z,76.04
2022-11-15T20:34:09.669Z,75.98
2022-11-15T20:36:37.989Z,76.16
2022-11-15T20:39:07.674Z,75.99
2022-11-15T20:41:36.039Z,76.24
2022-11-15T20:44:04.680Z,76.00
2022-11-15T20:46:33.033Z,76.29
2022-11-15T20:49:01.571Z,75.81
2022-11-15T20:51:33.281Z,75.90
2022-11-15T20:54:02.169Z,75.74
2022-11-15T20:56:31.907Z,76.02
2022-11-15T20:59:00.278Z,76.00
2022-11-15T21:01:28.817Z,76.04
2022-11-15T21:03:58.231Z,76.14
2022-11-15T21:06:27.849Z,75.75
2022-11-15T21:09:14.683Z,75.83
2022-11-15T21:12:02.567Z,75.81
2022-11-15T21:14:31.166Z,75.92
2022-11-15T21:16:59.499Z,76.32
2022-11-15T21:19:32.679Z,76.67
2022-11-15T21:22:06.175Z,76.86
2022-11-15T21:24:34.676Z,76.50
2022-11-15T21:27:04.942Z,76.63
2022-11-15T21:29:39.764Z,77.14
2022-11-15T21:32:10.104Z,76.83
2022-11-15T21:34:39.339Z,77.17
2022-11-15T21:37:08.726Z,77.20
2022-11-15T21:39:36.990Z,77.96
2022-11-15T21:42:06.974Z,77.97
2022-11-15T21:44:35.232Z,78.60
2022-11-15T21:47:03.582Z,78.76
2022-11-15T21:49:31.760Z,79.00
2022-11-15T21:52:00.066Z,79.31
2022-11-15T21:54:28.289Z,79.49
2022-11-15T21:56:56.657Z,79.96
2022-11-15T21:59:26.613Z,80.19
2022-11-15T22:02:12.259Z,80.34
2022-11-15T22:04:40.520Z,80.53
2022-11-15T22:07:09.091Z,80.95
2022-11-15T22:09:37.583Z,81.65
2022-11-15T22:12:06.035Z,81.51
2022-11-15T22:14:35.671Z,81.70
2022-11-15T22:17:05.563Z,81.95
2022-11-15T22:19:33.827Z,82.05
2022-11-15T22:22:02.044Z,82.72
2022-11-15T22:24:31.790Z,82.82
2022-11-15T22:27:00.653Z,83.17
2022-11-15T22:29:29.061Z,83.66
2022-11-15T22:31:58.649Z,84.22
2022-11-15T22:34:26.863Z,84.55
2022-11-15T22:37:19.790Z,84.27
2022-11-15T22:39:43.357Z,84.85
2022-11-15T22:42:11.627Z,84.88
2022-11-15T22:44:39.804Z,85.33
2022-11-15T22:47:09.409Z,85.19
2022-11-15T22:49:37.804Z,85.46
2022-11-15T22:52:06.544Z,85.38
2022-11-15T22:54:35.195Z,85.30
2022-11-15T22:57:04.139Z,86.28
2022-11-15T22:59:32.693Z,86.71
2022-11-15T23:02:00.981Z,86.63
2022-11-15T23:04:30.889Z,86.88
2022-11-15T23:06:59.402Z,86.99
2022-11-15T23:09:27.812Z,87.33
2022-11-15T23:12:13.628Z,87.73
2022-11-15T23:14:41.943Z,87.45
2022-11-15T23:17:10.209Z,87.57
2022-11-15T23:19:39.948Z,87.84
2022-11-15T23:22:26.073Z,88.17
2022-11-15T23:24:55.903Z,88.17
2022-11-15T23:27:24.114Z,88.17
2022-11-15T23:30:09.909Z,88.95
2022-11-15T23:32:55.965Z,88.65
2022-11-15T23:35:26.028Z,88.76
2022-11-15T23:37:54.259Z,89.35
2022-11-15T23:40:23.253Z,89.30
2022-11-15T23:42:51.686Z,89.83
2022-11-15T23:45:19.893Z,89.66
2022-11-15T23:47:48.126Z,89.86
2022-11-15T23:50:16.715Z,89.83
2022-11-15T23:52:46.289Z,89.75
2022-11-15T23:55:14.547Z,90.36
2022-11-15T23:57:42.879Z,90.08
